createdAt,value
2023-02-18T00:04:47.077Z,26.80
2023-02-18T00:09:54.250Z,26.74
2023-02-18T00:15:01.427Z,26.63
2023-02-18T00:20:08.635Z,26.66
2023-02-18T00:25:15.787Z,26.62
2023-02-18T00:30:23.026Z,26.61
2023-02-18T00:35:30.264Z,26.64
2023-02-18T00:40:37.345Z,26.54
2023-02-18T00:45:44.521Z,26.60
2023-02-18T00:50:51.750Z,26.58
2023-02-18T00:55:58.892Z,26.53
2023-02-18T01:01:07.548Z,26.43
2023-02-18T01:06:13.505Z,26.77
2023-02-18T01:11:20.731Z,26.45
2023-02-18T01:16:27.919Z,26.38
2023-02-18T01:21:35.145Z,26.39
2023-02-18T01:26:42.221Z,26.38
2023-02-18T01:31:49.569Z,26.42
2023-02-18T01:36:56.821Z,26.37
2023-02-18T01:42:03.969Z,26.50
2023-02-18T01:47:11.152Z,26.58
2023-02-18T01:52:18.364Z,26.58
2023-02-18T01:57:25.522Z,26.65
2023-02-18T02:02:32.719Z,26.72
2023-02-18T02:07:39.899Z,26.80
2023-02-18T02:12:47.064Z,26.88
2023-02-18T02:17:54.281Z,26.98
2023-02-18T02:23:01.487Z,27.00
2023-02-18T02:28:08.723Z,27.07
2023-02-18T02:33:16.072Z,27.15
2023-02-18T02:38:23.308Z,27.20
2023-02-18T02:43:30.489Z,27.26
2023-02-18T02:48:37.730Z,27.32
2023-02-18T02:53:44.974Z,27.40
2023-02-18T02:58:52.144Z,27.45
2023-02-18T03:03:59.326Z,27.50
2023-02-18T03:09:06.535Z,27.55
2023-02-18T03:14:13.721Z,27.63
2023-02-18T03:19:20.912Z,27.68
2023-02-18T03:24:28.187Z,27.70
2023-02-18T03:29:35.326Z,27.75
2023-02-18T03:34:42.555Z,27.80
2023-02-18T03:39:49.767Z,27.86
2023-02-18T03:44:56.998Z,27.96
2023-02-18T03:50:04.213Z,27.98
2023-02-18T03:55:11.417Z,28.02
2023-02-18T04:00:18.563Z,28.09
2023-02-18T04:05:25.741Z,28.12
2023-02-18T04:10:32.962Z,28.16
2023-02-18T04:15:40.158Z,28.21
2023-02-18T04:20:47.398Z,28.20
2023-02-18T04:25:54.628Z,28.28
2023-02-18T04:31:01.986Z,28.34
2023-02-18T04:36:09.392Z,28.37
2023-02-18T04:41:16.286Z,28.40
2023-02-18T04:46:23.355Z,28.48
2023-02-18T04:51:30.505Z,28.46
2023-02-18T04:56:37.746Z,28.49
2023-02-18T05:01:44.922Z,28.54
2023-02-18T05:06:52.145Z,28.56
2023-02-18T05:11:59.367Z,28.58
2023-02-18T05:17:06.542Z,28.64
2023-02-18T05:22:13.910Z,28.63
2023-02-18T05:27:21.106Z,28.69
2023-02-18T05:32:28.286Z,28.71
2023-02-18T05:37:35.449Z,28.74
2023-02-18T05:42:42.700Z,28.78
2023-02-18T05:47:49.932Z,28.76
2023-02-18T05:52:57.120Z,28.75
2023-02-18T05:58:04.304Z,28.76
2023-02-18T06:03:11.438Z,28.78
2023-02-18T06:08:18.590Z,28.80
2023-02-18T06:13:25.787Z,28.80
2023-02-18T06:18:32.950Z,28.80
2023-02-18T06:23:40.222Z,28.79
2023-02-18T06:28:47.558Z,28.85
2023-02-18T06:33:54.603Z,28.86
2023-02-18T06:39:01.798Z,28.89
2023-02-18T06:44:09.009Z,28.89
2023-02-18T06:49:16.120Z,28.93
2023-02-18T06:54:23.325Z,28.94
2023-02-18T06:59:30.549Z,28.97
2023-02-18T07:04:37.689Z,28.98
2023-02-18T07:09:44.874Z,28.98
2023-02-18T07:14:52.085Z,29.00
2023-02-18T07:19:59.237Z,29.00
2023-02-18T07:25:06.456Z,29.05
2023-02-18T07:30:13.704Z,29.15
2023-02-18T07:35:20.858Z,28.80
2023-02-18T07:40:28.049Z,28.64
2023-02-18T07:45:35.357Z,28.52
2023-02-18T07:50:42.511Z,28.38
2023-02-18T07:55:49.797Z,28.33
2023-02-18T08:00:57.107Z,28.14
2023-02-18T08:06:04.240Z,28.37
2023-02-18T08:11:18.992Z,28.27
2023-02-18T08:16:18.727Z,28.04
2023-02-18T08:21:25.847Z,27.95
2023-02-18T08:26:33.098Z,27.79
2023-02-18T08:31:41.080Z,27.67
2023-02-18T08:36:47.573Z,27.56
2023-02-18T08:41:54.761Z,27.52
2023-02-18T08:47:02.087Z,27.43
2023-02-18T08:52:09.294Z,27.36
2023-02-18T08:57:16.478Z,27.27
2023-02-18T09:02:23.688Z,27.17
2023-02-18T09:07:30.933Z,27.12
2023-02-18T09:12:38.126Z,27.03
2023-02-18T09:17:45.360Z,26.95
2023-02-18T09:22:52.578Z,26.89
2023-02-18T09:27:59.792Z,26.83
2023-02-18T09:33:07.014Z,26.88
2023-02-18T09:38:14.149Z,26.98
2023-02-18T09:43:21.419Z,27.34
2023-02-18T09:48:28.628Z,27.28
2023-02-18T09:53:35.811Z,27.34
2023-02-18T09:58:42.979Z,27.38
2023-02-18T10:03:50.202Z,27.50
2023-02-18T10:08:57.363Z,27.53
2023-02-18T10:14:04.541Z,27.45
2023-02-18T10:19:11.765Z,27.34
2023-02-18T10:24:19.022Z,27.22
2023-02-18T10:29:26.211Z,27.23
2023-02-18T10:34:33.381Z,27.19
2023-02-18T10:39:40.780Z,27.18
2023-02-18T10:44:47.990Z,27.11
2023-02-18T10:49:55.244Z,27.29
2023-02-18T10:55:02.416Z,27.33
2023-02-18T11:00:09.588Z,27.20
2023-02-18T11:05:16.816Z,27.27
2023-02-18T11:10:23.972Z,27.37
2023-02-18T11:15:31.147Z,27.44
2023-02-18T11:20:38.352Z,27.52
2023-02-18T11:25:45.647Z,27.61
2023-02-18T11:30:52.917Z,27.35
2023-02-18T11:36:00.118Z,27.32
2023-02-18T11:41:07.784Z,27.41
2023-02-18T11:46:14.447Z,27.30
2023-02-18T11:51:21.708Z,27.20
2023-02-18T11:56:28.830Z,27.16
2023-02-18T12:01:36.127Z,27.41
2023-02-18T12:06:43.412Z,27.16
2023-02-18T12:11:50.660Z,27.08
2023-02-18T12:16:57.786Z,27.14
2023-02-18T12:22:04.983Z,27.01
2023-02-18T12:27:12.145Z,26.95
2023-02-18T12:32:19.376Z,26.97
2023-02-18T12:37:26.786Z,26.97
2023-02-18T12:42:34.089Z,26.94
2023-02-18T12:47:41.580Z,27.21
2023-02-18T12:52:49.222Z,27.35
2023-02-18T12:57:56.571Z,28.26
2023-02-18T13:03:04.070Z,27.72
2023-02-18T13:08:11.461Z,27.28
2023-02-18T13:13:18.536Z,28.10
2023-02-18T13:18:25.774Z,27.31
2023-02-18T13:23:32.999Z,27.96
2023-02-18T13:28:40.281Z,27.81
2023-02-18T13:33:47.643Z,28.10
2023-02-18T13:38:54.873Z,27.99
2023-02-18T13:44:02.223Z,27.88
2023-02-18T13:49:09.550Z,27.91
2023-02-18T13:54:17.130Z,27.99
2023-02-18T13:59:24.705Z,28.44
2023-02-18T14:04:32.331Z,28.59
2023-02-18T14:09:39.674Z,29.04
2023-02-18T14:14:47.126Z,29.03
2023-02-18T14:19:54.529Z,28.99
2023-02-18T14:25:01.751Z,28.98
2023-02-18T14:30:09.041Z,29.45
2023-02-18T14:35:16.266Z,30.00
2023-02-18T14:40:23.787Z,30.62
2023-02-18T14:45:31.130Z,30.29
2023-02-18T14:50:38.373Z,30.20
2023-02-18T14:55:45.646Z,30.82
2023-02-18T15:00:52.810Z,30.44
2023-02-18T15:05:59.985Z,30.58
2023-02-18T15:11:07.188Z,30.46
2023-02-18T15:16:14.703Z,30.90
2023-02-18T15:21:21.942Z,30.64
2023-02-18T15:26:29.453Z,30.88
2023-02-18T15:31:37.009Z,30.54
2023-02-18T15:36:44.090Z,30.71
2023-02-18T15:41:51.300Z,30.99
2023-02-18T15:46:58.435Z,31.04
2023-02-18T15:52:05.921Z,31.19
2023-02-18T15:57:13.396Z,31.41
2023-02-18T16:02:20.988Z,31.11
2023-02-18T16:07:28.711Z,31.13
2023-02-18T16:12:36.344Z,30.97
2023-02-18T16:17:43.709Z,30.73
2023-02-18T16:22:51.141Z,30.90
2023-02-18T16:27:58.581Z,30.86
2023-02-18T16:33:05.846Z,30.58
2023-02-18T16:38:13.291Z,30.67
2023-02-18T16:43:20.913Z,30.53
2023-02-18T16:48:28.592Z,30.46
2023-02-18T16:53:36.069Z,30.44
2023-02-18T16:58:43.640Z,30.33
2023-02-18T17:03:51.449Z,30.47
2023-02-18T17:08:59.156Z,30.16
2023-02-18T17:14:06.898Z,30.21
2023-02-18T17:19:14.316Z,30.11
2023-02-18T17:24:21.899Z,30.20
2023-02-18T17:29:29.539Z,30.06
2023-02-18T17:34:37.151Z,30.00
2023-02-18T17:39:44.433Z,29.89
2023-02-18T17:44:51.996Z,29.98
2023-02-18T17:49:59.561Z,30.03
2023-02-18T17:55:07.193Z,30.08
2023-02-18T18:00:14.935Z,30.03
2023-02-18T18:05:22.511Z,30.07
2023-02-18T18:10:30.125Z,30.02
2023-02-18T18:15:37.760Z,30.00
2023-02-18T18:20:45.168Z,29.96
2023-02-18T18:25:52.653Z,29.93
2023-02-18T18:31:00.317Z,29.99
2023-02-18T18:36:08.310Z,30.02
2023-02-18T18:41:15.402Z,30.20
2023-02-18T18:46:23.008Z,30.08
2023-02-18T18:51:30.544Z,30.15
2023-02-18T18:56:39.281Z,30.06
2023-02-18T19:01:46.710Z,29.90
2023-02-18T19:06:54.108Z,29.85
2023-02-18T19:12:01.700Z,29.84
2023-02-18T19:17:09.101Z,29.63
2023-02-18T19:22:16.605Z,29.50
2023-02-18T19:27:24.243Z,29.61
2023-02-18T19:32:31.876Z,29.55
2023-02-18T19:37:39.463Z,29.61
2023-02-18T19:42:47.287Z,29.49
2023-02-18T19:47:54.758Z,29.47
2023-02-18T19:53:02.012Z,29.35
2023-02-18T19:58:09.521Z,29.35
2023-02-18T20:03:16.898Z,29.86
2023-02-18T20:08:24.344Z,29.25
2023-02-18T20:13:31.690Z,29.32
2023-02-18T20:18:39.179Z,29.35
2023-02-18T20:23:46.773Z,29.15
2023-02-18T20:28:54.390Z,29.28
2023-02-18T20:34:02.031Z,29.16
2023-02-18T20:39:16.203Z,29.03
2023-02-18T20:44:16.922Z,29.29
2023-02-18T20:49:25.068Z,29.01
2023-02-18T20:54:32.454Z,29.30
2023-02-18T20:59:40.084Z,29.09
2023-02-18T21:04:47.432Z,29.07
2023-02-18T21:09:54.614Z,29.00
2023-02-18T21:15:02.105Z,28.87
2023-02-18T21:20:09.744Z,29.04
2023-02-18T21:25:16.957Z,28.79
2023-02-18T21:30:24.584Z,28.78
2023-02-18T21:35:32.169Z,28.75
2023-02-18T21:40:40.667Z,28.65
2023-02-18T21:45:48.185Z,28.55
2023-02-18T21:50:55.649Z,28.41
2023-02-18T21:56:03.993Z,28.18
2023-02-18T22:01:10.666Z,28.14
2023-02-18T22:06:17.665Z,28.07
2023-02-18T22:11:24.922Z,27.85
2023-02-18T22:16:32.220Z,27.71
2023-02-18T22:21:39.308Z,27.67
2023-02-18T22:26:46.507Z,27.36
2023-02-18T22:31:53.827Z,27.50
2023-02-18T22:37:00.858Z,27.02
2023-02-18T22:42:08.028Z,27.16
2023-02-18T22:47:15.193Z,27.12
2023-02-18T22:52:22.520Z,27.02
2023-02-18T22:57:29.664Z,27.07
2023-02-18T23:02:36.876Z,27.20
2023-02-18T23:07:44.094Z,26.89
2023-02-18T23:12:51.396Z,26.90
2023-02-18T23:17:58.627Z,26.68
2023-02-18T23:23:05.830Z,26.76
2023-02-18T23:28:12.986Z,26.84
2023-02-18T23:33:20.270Z,26.88
2023-02-18T23:38:27.567Z,26.73
2023-02-18T23:43:34.744Z,26.61
2023-02-18T23:48:41.945Z,26.43
2023-02-18T23:53:49.134Z,26.35
2023-02-18T23:58:56.286Z,26.33
